createdAt,value
2023-02-22T00:00:03.324Z,59.10
2023-02-22T00:02:34.180Z,59.10
2023-02-22T00:05:04.442Z,59.00
2023-02-22T00:07:35.401Z,59.10
2023-02-22T00:10:05.670Z,59.10
2023-02-22T00:12:35.882Z,59.20
2023-02-22T00:15:07.368Z,59.20
2023-02-22T00:17:38.028Z,59.20
2023-02-22T00:20:08.923Z,59.20
2023-02-22T00:22:39.487Z,59.20
2023-02-22T00:25:10.145Z,59.30
2023-02-22T00:27:40.441Z,59.30
2023-02-22T00:30:12.777Z,59.30
2023-02-22T00:32:43.076Z,59.30
2023-02-22T00:35:13.475Z,59.30
2023-02-22T00:37:46.325Z,59.30
2023-02-22T00:40:21.003Z,59.40
2023-02-22T00:42:51.515Z,59.40
2023-02-22T00:45:24.638Z,59.40
2023-02-22T00:47:56.277Z,59.40
2023-02-22T00:50:28.950Z,59.60
2023-02-22T00:53:00.955Z,59.70
2023-02-22T00:55:34.340Z,59.80
2023-02-22T00:58:05.691Z,59.80
2023-02-22T01:00:39.733Z,59.90
2023-02-22T01:03:12.301Z,59.80
2023-02-22T01:05:42.554Z,60.00
2023-02-22T01:08:15.661Z,60.00
2023-02-22T01:10:46.859Z,60.10
2023-02-22T01:13:17.135Z,60.10
2023-02-22T01:15:48.133Z,60.30
2023-02-22T01:18:18.961Z,60.30
2023-02-22T01:20:49.619Z,60.40
2023-02-22T01:23:19.885Z,60.60
2023-02-22T01:25:50.196Z,60.70
2023-02-22T01:28:20.398Z,60.80
2023-02-22T01:30:51.091Z,60.60
2023-02-22T01:33:21.395Z,60.90
2023-02-22T01:35:52.593Z,61.10
2023-02-22T01:38:24.821Z,61.30
2023-02-22T01:40:55.244Z,61.50
2023-02-22T01:43:27.725Z,61.60
2023-02-22T01:46:31.499Z,61.60
2023-02-22T01:49:11.959Z,61.60
2023-02-22T01:51:54.547Z,61.60
2023-02-22T01:54:53.046Z,61.70
2023-02-22T01:57:26.061Z,61.90
2023-02-22T02:00:02.355Z,62.20
2023-02-22T02:02:32.645Z,62.10
2023-02-22T02:05:03.149Z,62.10
2023-02-22T02:07:33.524Z,62.10
2023-02-22T02:10:10.038Z,62.20
2023-02-22T02:12:40.480Z,62.10
2023-02-22T02:15:30.550Z,62.20
2023-02-22T02:18:05.766Z,61.90
2023-02-22T02:20:44.589Z,62.10
2023-02-22T02:23:45.728Z,62.10
2023-02-22T02:26:39.716Z,62.10
2023-02-22T02:29:21.649Z,62.20
2023-02-22T02:31:57.516Z,62.40
2023-02-22T02:34:53.273Z,62.10
2023-02-22T02:37:49.348Z,62.30
2023-02-22T02:40:27.478Z,62.20
2023-02-22T02:43:00.841Z,62.10
2023-02-22T02:45:51.901Z,62.00
2023-02-22T02:48:28.216Z,61.80
2023-02-22T02:51:02.083Z,62.70
2023-02-22T02:53:41.820Z,62.10
2023-02-22T02:56:12.101Z,62.30
2023-02-22T02:58:51.850Z,62.10
2023-02-22T03:01:49.214Z,62.00
2023-02-22T03:04:42.362Z,61.90
2023-02-22T03:07:50.998Z,62.00
2023-02-22T03:10:30.617Z,62.10
2023-02-22T03:13:26.975Z,62.50
2023-02-22T03:16:16.459Z,62.80
2023-02-22T03:19:07.283Z,63.20
2023-02-22T03:21:49.683Z,63.30
2023-02-22T03:24:54.938Z,63.50
2023-02-22T03:27:25.104Z,63.80
2023-02-22T03:30:02.217Z,64.20
2023-02-22T03:32:39.101Z,63.90
2023-02-22T03:35:18.783Z,63.80
2023-02-22T03:37:52.510Z,63.60
2023-02-22T03:40:30.633Z,63.40
2023-02-22T03:43:12.437Z,63.40
2023-02-22T03:45:48.025Z,63.10
2023-02-22T03:48:18.161Z,63.10
2023-02-22T03:50:48.712Z,63.00
2023-02-22T03:53:21.363Z,62.90
2023-02-22T03:55:55.660Z,62.80
2023-02-22T03:58:28.391Z,62.80
2023-02-22T04:00:58.876Z,62.70
2023-02-22T04:03:29.401Z,62.80
2023-02-22T04:06:00.286Z,62.80
2023-02-22T04:08:33.305Z,62.80
2023-02-22T04:11:03.566Z,62.90
2023-02-22T04:13:33.890Z,62.80
2023-02-22T04:16:04.272Z,62.80
2023-02-22T04:18:34.514Z,62.60
2023-02-22T04:21:04.780Z,62.60
2023-02-22T04:23:34.978Z,62.50
2023-02-22T04:26:05.305Z,62.30
2023-02-22T04:28:35.582Z,62.20
2023-02-22T04:31:06.088Z,62.00
2023-02-22T04:33:36.412Z,61.90
2023-02-22T04:36:07.173Z,61.80
2023-02-22T04:38:37.394Z,61.50
2023-02-22T04:41:07.746Z,61.60
2023-02-22T04:43:37.952Z,61.40
2023-02-22T04:46:08.588Z,61.40
2023-02-22T04:48:38.905Z,61.30
2023-02-22T04:51:10.280Z,61.20
2023-02-22T04:53:40.524Z,61.00
2023-02-22T04:56:10.854Z,61.00
2023-02-22T04:58:41.103Z,60.90
2023-02-22T05:01:11.543Z,60.80
2023-02-22T05:03:41.866Z,60.80
2023-02-22T05:06:14.270Z,60.70
2023-02-22T05:08:44.494Z,61.40
2023-02-22T05:11:15.087Z,60.50
2023-02-22T05:13:45.466Z,60.50
2023-02-22T05:16:16.067Z,60.40
2023-02-22T05:18:46.336Z,60.40
2023-02-22T05:21:16.830Z,60.40
2023-02-22T05:23:47.264Z,60.30
2023-02-22T05:26:21.088Z,60.10
2023-02-22T05:28:51.302Z,60.20
2023-02-22T05:31:21.627Z,60.10
2023-02-22T05:33:51.862Z,60.00
2023-02-22T05:36:22.090Z,59.80
2023-02-22T05:38:52.268Z,59.80
2023-02-22T05:41:22.637Z,59.80
2023-02-22T05:43:52.897Z,59.80
2023-02-22T05:46:23.282Z,59.80
2023-02-22T05:48:53.582Z,59.80
2023-02-22T05:51:24.213Z,60.10
2023-02-22T05:53:54.580Z,59.90
2023-02-22T05:56:26.637Z,59.90
2023-02-22T05:58:57.775Z,59.80
2023-02-22T06:01:28.844Z,59.70
2023-02-22T06:03:59.222Z,59.60
2023-02-22T06:06:29.612Z,59.70
2023-02-22T06:09:00.208Z,59.60
2023-02-22T06:11:30.631Z,59.70
2023-02-22T06:14:01.054Z,59.60
2023-02-22T06:16:33.435Z,60.20
2023-02-22T06:19:03.790Z,59.40
2023-02-22T06:21:34.025Z,59.40
2023-02-22T06:24:07.140Z,59.40
2023-02-22T06:26:37.734Z,59.30
2023-02-22T06:29:07.943Z,59.30
2023-02-22T06:31:38.520Z,59.30
2023-02-22T06:34:09.169Z,59.30
2023-02-22T06:36:39.451Z,59.20
2023-02-22T06:39:12.729Z,59.20
2023-02-22T06:41:44.189Z,59.10
2023-02-22T06:44:15.755Z,59.10
2023-02-22T06:46:55.082Z,59.00
2023-02-22T06:49:25.415Z,59.00
2023-02-22T06:51:56.360Z,59.00
2023-02-22T06:54:26.668Z,59.00
2023-02-22T06:56:56.868Z,58.90
2023-02-22T06:59:28.112Z,58.70
2023-02-22T07:01:58.421Z,58.80
2023-02-22T07:04:28.719Z,58.80
2023-02-22T07:06:59.251Z,58.70
2023-02-22T07:09:29.638Z,58.70
2023-02-22T07:12:00.020Z,58.80
2023-02-22T07:14:30.652Z,58.70
2023-02-22T07:17:00.914Z,58.70
2023-02-22T07:19:31.204Z,58.70
2023-02-22T07:22:01.530Z,58.70
2023-02-22T07:24:31.861Z,58.50
2023-02-22T07:27:04.273Z,58.40
2023-02-22T07:29:37.682Z,58.20
2023-02-22T07:32:08.160Z,58.20
2023-02-22T07:34:38.979Z,58.20
2023-02-22T07:37:09.196Z,58.20
2023-02-22T07:39:39.668Z,58.20
2023-02-22T07:42:09.941Z,58.20
2023-02-22T07:44:40.144Z,58.10
2023-02-22T07:47:14.241Z,58.20
2023-02-22T07:49:44.520Z,58.10
2023-02-22T07:52:14.860Z,58.20
2023-02-22T07:54:45.057Z,58.10
2023-02-22T07:57:15.619Z,58.10
2023-02-22T07:59:50.706Z,58.10
2023-02-22T08:02:21.044Z,58.00
2023-02-22T08:04:51.328Z,57.90
2023-02-22T08:07:21.629Z,57.80
2023-02-22T08:09:51.828Z,57.80
2023-02-22T08:12:22.077Z,57.80
2023-02-22T08:14:52.585Z,57.80
2023-02-22T08:17:22.816Z,57.70
2023-02-22T08:19:53.066Z,57.60
2023-02-22T08:22:23.324Z,57.70
2023-02-22T08:24:56.138Z,57.60
2023-02-22T08:27:28.433Z,57.60
2023-02-22T08:30:00.338Z,57.60
2023-02-22T08:32:31.055Z,57.60
2023-02-22T08:35:02.944Z,57.70
2023-02-22T08:37:33.382Z,57.80
2023-02-22T08:40:03.764Z,57.60
2023-02-22T08:42:33.970Z,57.60
2023-02-22T08:45:04.300Z,57.30
2023-02-22T08:47:34.533Z,57.20
2023-02-22T08:50:04.951Z,57.00
2023-02-22T08:52:35.201Z,56.80
2023-02-22T08:55:05.926Z,56.60
2023-02-22T08:57:36.127Z,56.70
2023-02-22T09:00:07.985Z,56.50
2023-02-22T09:02:38.186Z,56.40
2023-02-22T09:05:09.135Z,56.20
2023-02-22T09:07:39.299Z,56.00
2023-02-22T09:10:10.065Z,56.10
2023-02-22T09:12:40.392Z,56.20
2023-02-22T09:15:11.354Z,56.10
2023-02-22T09:17:41.849Z,56.00
2023-02-22T09:20:14.062Z,55.80
2023-02-22T09:22:46.760Z,55.70
2023-02-22T09:25:18.118Z,55.60
2023-02-22T09:27:51.550Z,55.70
2023-02-22T09:30:27.363Z,56.10
2023-02-22T09:33:00.865Z,56.10
2023-02-22T09:35:31.694Z,56.20
2023-02-22T09:38:03.072Z,56.20
2023-02-22T09:40:46.602Z,56.10
2023-02-22T09:43:42.259Z,56.30
2023-02-22T09:46:50.932Z,56.40
2023-02-22T09:49:48.956Z,56.50
2023-02-22T09:52:29.741Z,56.50
2023-02-22T09:55:12.080Z,56.60
2023-02-22T09:57:45.234Z,56.70
2023-02-22T10:00:24.344Z,56.60
2023-02-22T10:03:03.668Z,56.70
2023-02-22T10:05:43.424Z,56.80
2023-02-22T10:08:31.401Z,56.70
2023-02-22T10:11:25.832Z,56.70
2023-02-22T10:14:17.081Z,56.80
2023-02-22T10:17:20.142Z,56.80
2023-02-22T10:20:30.300Z,56.70
2023-02-22T10:23:11.554Z,56.70
2023-02-22T10:25:44.561Z,56.80
2023-02-22T10:28:41.276Z,56.80
2023-02-22T10:31:21.385Z,56.80
2023-02-22T10:34:14.268Z,56.90
2023-02-22T10:36:49.940Z,56.80
2023-02-22T10:39:36.785Z,57.50
2023-02-22T10:42:09.879Z,57.00
2023-02-22T10:44:41.450Z,57.00
2023-02-22T10:47:21.863Z,57.00
2023-02-22T10:49:57.297Z,57.00
2023-02-22T10:52:37.938Z,57.10
2023-02-22T10:55:15.747Z,57.00
2023-02-22T10:57:49.724Z,57.10
2023-02-22T11:00:32.444Z,57.00
2023-02-22T11:03:05.209Z,57.10
2023-02-22T11:05:38.506Z,57.10
2023-02-22T11:08:27.120Z,57.10
2023-02-22T11:11:06.564Z,57.10
2023-02-22T11:13:40.543Z,57.20
2023-02-22T11:16:33.344Z,57.20
2023-02-22T11:19:40.776Z,57.30
2023-02-22T11:22:27.251Z,57.20
2023-02-22T11:25:09.072Z,57.30
2023-02-22T11:27:48.618Z,57.20
2023-02-22T11:30:24.802Z,57.30
2023-02-22T11:33:24.940Z,57.40
2023-02-22T11:35:56.614Z,57.30
2023-02-22T11:38:32.401Z,57.40
2023-02-22T11:41:19.564Z,57.50
2023-02-22T11:43:51.908Z,57.40
2023-02-22T11:46:28.119Z,57.50
2023-02-22T11:49:08.848Z,57.50
2023-02-22T11:52:08.341Z,57.50
2023-02-22T11:54:56.908Z,57.40
2023-02-22T11:58:22.432Z,57.50
2023-02-22T12:01:19.891Z,57.50
2023-02-22T12:04:18.374Z,57.50
2023-02-22T12:07:06.672Z,57.50
2023-02-22T12:09:55.270Z,57.50
2023-02-22T12:12:37.547Z,57.60
2023-02-22T12:15:31.953Z,58.10
2023-02-22T12:18:22.549Z,57.50
2023-02-22T12:21:09.263Z,58.20
2023-02-22T12:24:03.535Z,57.50
2023-02-22T12:26:41.005Z,57.60
2023-02-22T12:29:29.591Z,57.60
2023-02-22T12:32:05.717Z,57.50
2023-02-22T12:35:07.357Z,57.60
2023-02-22T12:37:52.344Z,57.50
2023-02-22T12:41:00.112Z,57.60
2023-02-22T12:43:37.255Z,57.60
2023-02-22T12:46:29.436Z,57.70
2023-02-22T12:49:20.284Z,57.70
2023-02-22T12:52:01.470Z,57.70
2023-02-22T12:54:50.064Z,57.70
2023-02-22T12:57:38.413Z,57.70
2023-02-22T13:00:18.863Z,57.70
2023-02-22T13:03:01.038Z,57.80
2023-02-22T13:05:37.862Z,57.80
2023-02-22T13:08:30.188Z,57.80
2023-02-22T13:11:04.776Z,57.80
2023-02-22T13:13:56.241Z,58.50
2023-02-22T13:17:02.472Z,58.00
2023-02-22T13:19:53.886Z,57.90
2023-02-22T13:23:12.041Z,58.00
2023-02-22T13:25:48.176Z,58.00
2023-02-22T13:28:24.491Z,58.10
2023-02-22T13:31:15.620Z,58.10
2023-02-22T13:34:24.262Z,58.10
2023-02-22T13:36:54.455Z,58.00
2023-02-22T13:39:48.761Z,58.20
2023-02-22T13:42:22.003Z,58.20
2023-02-22T13:44:58.913Z,58.80
2023-02-22T13:47:41.838Z,58.20
2023-02-22T13:50:48.187Z,58.20
2023-02-22T13:53:25.252Z,58.10
2023-02-22T13:55:59.883Z,58.20
2023-02-22T13:58:30.976Z,58.30
2023-02-22T14:01:02.325Z,58.30
2023-02-22T14:03:42.035Z,58.30
2023-02-22T14:06:40.578Z,58.20
2023-02-22T14:09:20.703Z,58.30
2023-02-22T14:11:58.386Z,58.30
2023-02-22T14:14:28.656Z,58.40
2023-02-22T14:17:31.771Z,58.40
2023-02-22T14:20:16.599Z,58.30
2023-02-22T14:22:48.213Z,58.40
2023-02-22T14:25:43.736Z,58.40
2023-02-22T14:28:35.304Z,58.30
2023-02-22T14:31:35.542Z,58.40
2023-02-22T14:34:21.792Z,58.40
2023-02-22T14:37:19.481Z,58.50
2023-02-22T14:40:00.028Z,58.50
2023-02-22T14:43:03.942Z,58.60
2023-02-22T14:45:45.033Z,58.50
2023-02-22T14:48:27.068Z,58.60
2023-02-22T14:51:08.810Z,58.60
2023-02-22T14:54:02.187Z,58.60
2023-02-22T14:56:50.769Z,58.60
2023-02-22T14:59:29.687Z,58.60
2023-02-22T15:02:14.484Z,58.70
2023-02-22T15:04:52.966Z,58.70
2023-02-22T15:07:33.068Z,58.70
2023-02-22T15:10:31.096Z,58.70
2023-02-22T15:13:15.962Z,58.60
2023-02-22T15:15:51.314Z,58.70
2023-02-22T15:18:45.367Z,58.70
2023-02-22T15:21:19.164Z,58.70
2023-02-22T15:24:09.650Z,58.70
2023-02-22T15:27:00.311Z,58.70
2023-02-22T15:29:39.361Z,58.70
2023-02-22T15:32:33.824Z,58.70
2023-02-22T15:35:25.078Z,58.70
2023-02-22T15:38:08.180Z,58.70
2023-02-22T15:40:44.756Z,58.80
2023-02-22T15:43:26.164Z,58.80
2023-02-22T15:45:57.242Z,58.80
2023-02-22T15:48:28.592Z,58.90
2023-02-22T15:51:08.170Z,58.90
2023-02-22T15:53:52.538Z,58.80
2023-02-22T15:56:33.647Z,58.80
2023-02-22T15:59:11.351Z,58.80
2023-02-22T16:01:45.315Z,58.90
2023-02-22T16:04:24.896Z,58.90
2023-02-22T16:07:05.712Z,58.90
2023-02-22T16:09:36.517Z,58.90
2023-02-22T16:12:40.059Z,58.90
2023-02-22T16:15:20.274Z,58.90
2023-02-22T16:18:01.686Z,58.90
2023-02-22T16:20:34.271Z,58.90
2023-02-22T16:23:25.582Z,59.00
2023-02-22T16:26:26.732Z,58.90
2023-02-22T16:29:05.617Z,58.90
2023-02-22T16:31:42.522Z,59.00
2023-02-22T16:34:12.828Z,58.90
2023-02-22T16:36:48.918Z,59.00
2023-02-22T16:39:33.970Z,59.60
2023-02-22T16:42:06.704Z,58.90
2023-02-22T16:44:36.966Z,59.10
2023-02-22T16:47:07.159Z,59.10
2023-02-22T16:49:37.398Z,59.10
2023-02-22T16:52:09.975Z,59.10
2023-02-22T16:54:46.791Z,59.10
2023-02-22T16:57:23.133Z,59.10
2023-02-22T16:59:54.503Z,59.10
2023-02-22T17:02:24.885Z,59.10
2023-02-22T17:04:55.227Z,59.10
2023-02-22T17:07:25.782Z,59.10
2023-02-22T17:09:56.022Z,59.10
2023-02-22T17:12:27.117Z,59.10
2023-02-22T17:14:57.801Z,59.10
2023-02-22T17:17:28.205Z,59.10
2023-02-22T17:19:58.574Z,59.10
2023-02-22T17:22:28.769Z,59.00
2023-02-22T17:24:58.991Z,59.00
2023-02-22T17:27:29.401Z,59.00
2023-02-22T17:29:59.853Z,59.00
2023-02-22T17:32:30.429Z,59.10
2023-02-22T17:35:00.873Z,59.10
2023-02-22T17:37:31.360Z,59.10
2023-02-22T17:40:01.703Z,59.10
2023-02-22T17:42:32.026Z,59.10
2023-02-22T17:45:02.362Z,59.10
2023-02-22T17:47:32.772Z,59.10
2023-02-22T17:50:02.949Z,59.20
2023-02-22T17:52:33.914Z,59.20
2023-02-22T17:55:04.239Z,59.80
2023-02-22T17:57:34.513Z,59.20
2023-02-22T18:00:17.338Z,59.20
2023-02-22T18:02:47.929Z,59.20
2023-02-22T18:05:18.538Z,59.20
2023-02-22T18:07:49.461Z,59.20
2023-02-22T18:10:22.348Z,59.20
2023-02-22T18:12:54.707Z,59.20
2023-02-22T18:15:25.205Z,59.30
2023-02-22T18:17:55.596Z,59.30
2023-02-22T18:20:39.657Z,59.30
2023-02-22T18:23:22.557Z,59.30
2023-02-22T18:26:09.226Z,59.20
2023-02-22T18:28:40.453Z,59.30
2023-02-22T18:31:16.436Z,59.30
2023-02-22T18:33:48.225Z,59.30
2023-02-22T18:36:24.226Z,59.30
2023-02-22T18:38:56.024Z,59.30
2023-02-22T18:41:27.322Z,59.30
2023-02-22T18:44:01.976Z,59.30
2023-02-22T18:46:32.361Z,59.30
2023-02-22T18:49:02.959Z,59.40
2023-02-22T18:51:33.322Z,59.40
2023-02-22T18:54:04.320Z,59.40
2023-02-22T18:56:35.676Z,59.30
2023-02-22T18:59:08.211Z,59.30
2023-02-22T19:01:40.636Z,59.40
2023-02-22T19:04:14.258Z,59.30
2023-02-22T19:06:46.850Z,59.40
2023-02-22T19:09:18.038Z,59.30
2023-02-22T19:11:49.975Z,60.10
2023-02-22T19:14:21.225Z,59.40
2023-02-22T19:16:58.230Z,59.40
2023-02-22T19:19:28.508Z,59.40
2023-02-22T19:21:58.794Z,59.50
2023-02-22T19:24:29.045Z,59.50
2023-02-22T19:27:01.579Z,59.50
2023-02-22T19:29:32.886Z,59.50
2023-02-22T19:32:03.225Z,59.60
2023-02-22T19:34:33.690Z,59.60
2023-02-22T19:37:04.132Z,59.60
2023-02-22T19:39:36.458Z,59.60
2023-02-22T19:42:10.712Z,59.50
2023-02-22T19:44:41.166Z,59.50
2023-02-22T19:47:11.786Z,59.60
2023-02-22T19:49:42.948Z,59.60
2023-02-22T19:52:13.244Z,59.60
2023-02-22T19:54:43.540Z,59.60
2023-02-22T19:57:14.961Z,59.60
2023-02-22T19:59:45.246Z,59.60
2023-02-22T20:02:15.928Z,59.60
2023-02-22T20:04:46.193Z,59.70
2023-02-22T20:07:16.435Z,59.60
2023-02-22T20:09:46.739Z,59.70
2023-02-22T20:12:17.105Z,59.70
2023-02-22T20:14:48.003Z,59.60
2023-02-22T20:17:18.178Z,59.70
2023-02-22T20:19:50.484Z,59.70
2023-02-22T20:22:20.719Z,59.70
2023-02-22T20:24:51.468Z,59.70
2023-02-22T20:27:21.865Z,59.70
2023-02-22T20:29:52.262Z,59.70
2023-02-22T20:32:26.189Z,59.70
2023-02-22T20:34:56.565Z,59.70
2023-02-22T20:37:27.220Z,59.70
2023-02-22T20:39:57.815Z,59.80
2023-02-22T20:42:28.872Z,59.80
2023-02-22T20:45:03.502Z,59.80
2023-02-22T20:47:34.045Z,59.80
2023-02-22T20:50:04.558Z,59.80
2023-02-22T20:52:34.788Z,59.80
2023-02-22T20:55:05.887Z,59.80
2023-02-22T20:57:36.151Z,59.80
2023-02-22T21:00:12.105Z,59.80
2023-02-22T21:02:42.451Z,59.90
2023-02-22T21:05:12.727Z,59.90
2023-02-22T21:07:42.959Z,59.90
2023-02-22T21:10:13.316Z,59.90
2023-02-22T21:12:44.487Z,59.90
2023-02-22T21:15:16.050Z,60.00
2023-02-22T21:17:49.147Z,60.00
2023-02-22T21:20:23.433Z,60.00
2023-02-22T21:22:54.424Z,60.00
2023-02-22T21:25:28.459Z,60.10
2023-02-22T21:27:58.734Z,60.10
2023-02-22T21:30:29.792Z,60.10
2023-02-22T21:33:00.100Z,60.10
2023-02-22T21:35:30.449Z,60.10
2023-02-22T21:38:00.891Z,60.10
2023-02-22T21:40:31.406Z,60.20
2023-02-22T21:43:01.643Z,60.20
2023-02-22T21:45:33.069Z,60.20
2023-02-22T21:48:03.319Z,60.20
2023-02-22T21:50:33.760Z,60.30
2023-02-22T21:53:03.941Z,60.30
2023-02-22T21:55:35.518Z,60.30
2023-02-22T21:58:05.903Z,60.30
2023-02-22T22:00:39.869Z,60.30
2023-02-22T22:03:14.921Z,60.40
2023-02-22T22:05:47.764Z,60.30
2023-02-22T22:08:21.362Z,60.40
2023-02-22T22:10:56.792Z,60.40
2023-02-22T22:13:29.842Z,60.40
2023-02-22T22:16:06.359Z,60.50
2023-02-22T22:18:41.557Z,60.50
2023-02-22T22:21:13.469Z,60.60
2023-02-22T22:23:44.287Z,60.60
2023-02-22T22:26:15.370Z,60.60
2023-02-22T22:28:48.014Z,60.70
2023-02-22T22:31:21.010Z,60.70
2023-02-22T22:33:51.896Z,60.60
2023-02-22T22:36:24.058Z,60.60
2023-02-22T22:38:54.969Z,60.70
2023-02-22T22:41:25.419Z,60.70
2023-02-22T22:43:55.824Z,60.70
2023-02-22T22:46:26.327Z,60.70
2023-02-22T22:48:57.891Z,60.80
2023-02-22T22:51:28.383Z,60.80
2023-02-22T22:54:01.032Z,60.80
2023-02-22T22:56:31.507Z,60.80
2023-02-22T22:59:02.088Z,60.90
2023-02-22T23:01:36.045Z,60.90
2023-02-22T23:04:09.559Z,60.90
2023-02-22T23:06:42.573Z,61.00
2023-02-22T23:09:27.811Z,60.90
2023-02-22T23:12:18.210Z,60.90
2023-02-22T23:14:48.808Z,61.00
2023-02-22T23:17:32.579Z,61.00
2023-02-22T23:20:02.926Z,61.00
2023-02-22T23:22:33.195Z,61.00
2023-02-22T23:25:03.428Z,61.10
2023-02-22T23:27:33.663Z,61.10
2023-02-22T23:30:03.918Z,61.10
2023-02-22T23:32:36.724Z,61.20
2023-02-22T23:35:07.196Z,61.10
2023-02-22T23:37:37.463Z,61.10
2023-02-22T23:40:18.068Z,61.20
2023-02-22T23:42:59.476Z,61.10
2023-02-22T23:45:30.030Z,61.10
2023-02-22T23:48:03.280Z,61.20
2023-02-22T23:50:37.908Z,61.30
2023-02-22T23:53:08.121Z,61.20
2023-02-22T23:55:42.216Z,61.30
2023-02-22T23:58:13.009Z,61.20
